Buoy 62554

sailwx.info

Track history (hours):
 
Tides and Currents Weather Stations Pressure Air Temp Water Temp Dewpoint Dewpoint Depression Visibility Wind Speed Wind Dir Waves Ship Positions

Drifting buoy 62554

Last reported at 2018-Feb-04 19:00 UTC. Time now 2018-Jul-18 08:59 UTC.
Position N 36°43' W 019°20'.
Warning: this ship's position is months out of date.

Barometer 1027.3 mb
Water temperature 16.9 ° C

Date/timePositionNaut miles runAvg speedWind from/ knotsBaromVisibWave heightAir tempDewpointWater temp
2018-Feb-04 19:00N 36°43' W 019°20'1 0.6 1027.3 16.9
2018-Feb-04 18:00N 36°44' W 019°20'1 0.6 1027.3 16.9
2018-Feb-04 17:00N 36°44' W 019°20'1 0.6 1027.4 16.9
2018-Feb-04 16:00N 36°45' W 019°20'1 1.2 1027.9 16.9
2018-Feb-04 15:00N 36°46' W 019°20'1 0.6 1028.5 16.9
2018-Feb-04 14:00N 36°47' W 019°20'0 0.0 1029.6 16.9
2018-Feb-04 13:00N 36°47' W 019°20'1 0.6 1030.9 16.9
2018-Feb-04 12:00N 36°47' W 019°20'1 0.6 1031.7 16.9
2018-Feb-04 11:00N 36°48' W 019°20'0 0.5 1032.1 16.9
2018-Feb-04 10:00N 36°48' W 019°20'1 0.6 1032.4 16.9
2018-Feb-04 09:00N 36°49' W 019°20'0 0.0 1032.0 16.9
2018-Feb-04 08:00N 36°49' W 019°20'0 0.0 1031.5 16.8
2018-Feb-04 07:00N 36°49' W 019°20'1 0.8 1031.4 16.8
2018-Feb-04 06:00N 36°49' W 019°19'0 0.0 1031.6 16.8
2018-Feb-04 05:00N 36°49' W 019°19'0 0.0 1031.8 16.9
2018-Feb-04 04:00N 36°49' W 019°19'0 0.0 1032.3 16.9
2018-Feb-04 03:00N 36°49' W 019°19'1 0.8 1032.8 16.9
2018-Feb-04 02:00N 36°50' W 019°19'0 0.5 1033.1 16.9
2018-Feb-04 01:00N 36°50' W 019°18'0 0.0 1033.4 16.9
2018-Feb-04 00:00N 36°50' W 019°18'1 0.8 1033.4 16.9
2018-Feb-03 23:00N 36°50' W 019°17'1 0.8 1033.6 16.9
2018-Feb-03 22:00N 36°51' W 019°17'0 0.5 1033.4 16.9
2018-Feb-03 21:00N 36°51' W 019°16'1 0.6 1033.1 16.9
2018-Feb-03 20:00N 36°52' W 019°16'1 0.8 1033.1 17.0
2018-Feb-03 19:00N 36°52' W 019°16'1 1.2 1032.3 17.0
2018-Feb-03 18:00N 36°53' W 019°16'1 0.6 1031.9 17.0
2018-Feb-03 17:00N 36°54' W 019°16'1 0.6 1031.2 17.0
2018-Feb-03 16:00N 36°55' W 019°16'1 0.6 1030.7 16.9
2018-Feb-03 15:00N 36°55' W 019°16'1 0.6 1030.8 16.9
2018-Feb-03 14:00N 36°56' W 019°16'1 0.6 1031.3 16.9
2018-Feb-03 13:00N 36°56' W 019°16'0 0.0 1031.6 16.9
2018-Feb-03 12:00N 36°56' W 019°16'0 0.5 1032.4 16.9
2018-Feb-03 11:00N 36°56' W 019°16'1 0.8 1032.6 16.8
2018-Feb-03 10:00N 36°57' W 019°16'0 0.0 1032.4 16.9
2018-Feb-03 09:00N 36°57' W 019°16'0 0.0 1031.8 16.8
2018-Feb-03 08:00N 36°57' W 019°16'0 0.5 1031.1 16.8
2018-Feb-03 07:00N 36°57' W 019°15'1 0.6 1030.8 16.8
2018-Feb-03 06:00N 36°58' W 019°15'0 0.0 1030.4 16.9
2018-Feb-03 05:00N 36°58' W 019°15'1 0.8 1030.3 16.9
2018-Feb-03 04:00N 36°58' W 019°14'0 0.0 1030.3 16.9
2018-Feb-03 03:00N 36°58' W 019°14'1 0.8 1030.6 16.9
2018-Feb-03 02:00N 36°59' W 019°14'0 0.0 1030.9 16.9
2018-Feb-03 01:00N 36°59' W 019°14'0 0.5 1031.3 16.9
2018-Feb-03 00:00N 36°59' W 019°13'0 0.5 1031.3 17.0
2018-Feb-02 23:00N 36°59' W 019°13'0 0.0 1031.4 17.0
2018-Feb-02 22:00N 36°59' W 019°13'0 0.5 1031.2 17.0
2018-Feb-02 21:00N 36°59' W 019°12'1 0.8 1031.1 17.0
2018-Feb-02 20:00N 36°59' W 019°11'0 0.5 1030.7 17.1
2018-Feb-02 19:00N 36°59' W 019°11'1 0.6 1030.3 17.1
2018-Feb-02 18:00N 37°00' W 019°11'0 0.0 1029.9 17.1
2018-Feb-02 17:00N 37°00' W 019°11'1 0.6 1029.4 17.1
2018-Feb-02 16:00N 37°01' W 019°11'1 0.6 1029.2 17.2
2018-Feb-02 15:00N 37°01' W 019°11'0 0.0 1029.2 17.2
2018-Feb-02 14:00N 37°01' W 019°11'0 0.0 1029.7 17.1
2018-Feb-02 13:00N 37°01' W 019°11'0 0.0 1030.1 17.1
2018-Feb-02 12:00N 37°01' W 019°11'1 0.8 1030.7 17.1
2018-Feb-02 11:00N 37°02' W 019°10'0 0.0 1030.7 17.1
2018-Feb-02 10:00N 37°02' W 019°10'0 0.5 1030.4 17.1
2018-Feb-02 09:00N 37°02' W 019°10'0 0.0 1029.9 17.1
2018-Feb-02 08:00N 37°02' W 019°10'1 0.8 1029.1 17.1
2018-Feb-02 07:00N 37°02' W 019°09'0 0.5 1028.8 17.1
2018-Feb-02 06:00N 37°02' W 019°08'1 0.6 1028.6 17.1
2018-Feb-02 05:00N 37°03' W 019°08'0 0.0 1028.6 17.1
2018-Feb-02 04:00N 37°03' W 019°08'1 0.6 1028.7 17.1
2018-Feb-02 03:00N 37°04' W 019°08'0 0.0 1029.1 17.1
2018-Feb-02 02:00N 37°04' W 019°08'1 0.8 1029.5 17.1
2018-Feb-02 01:00N 37°04' W 019°08'0 0.5 1030.0 17.1
2018-Feb-02 00:00N 37°04' W 019°08'1 1.3 1030.5 17.1
2018-Feb-01 23:00N 37°05' W 019°08'0 0.0 1030.6 17.1
2018-Feb-01 22:00N 37°05' W 019°08'0 0.0 1030.6 17.1
2018-Feb-01 21:00N 37°05' W 019°08'1 0.6 1030.5 17.1
2018-Feb-01 20:00N 37°06' W 019°08'0 0.0 1030.4 17.1
2018-Feb-01 19:00N 37°06' W 019°08'0 0.0 1029.5 17.1
2018-Feb-01 18:00N 37°06' W 019°08'0 0.0 1029.0 17.2
2018-Feb-01 17:00N 37°06' W 019°08'1 0.6 1028.6 17.2
2018-Feb-01 16:00N 37°07' W 019°08'0 0.0 1028.6 17.2
2018-Feb-01 15:00N 37°07' W 019°08'0 0.0 1028.8 17.2
2018-Feb-01 14:00N 37°07' W 019°08'0 0.0 1029.6 17.1
2018-Feb-01 13:00N 37°07' W 019°08'0 0.5 1030.7 17.2
2018-Feb-01 12:00N 37°07' W 019°07'0 0.5 1031.2 17.2
2018-Feb-01 11:00N 37°07' W 019°07'1 1.1 1031.0 17.2
2018-Feb-01 10:00N 37°07' W 019°05'1 1.1 1030.8 17.2
2018-Feb-01 09:00N 37°08' W 019°04'0 0.0 1030.4 17.2
2018-Feb-01 08:00N 37°08' W 019°04'0 0.5 1029.9 17.2
2018-Feb-01 07:00N 37°08' W 019°04'1 0.8 1029.6 17.2
2018-Feb-01 06:00N 37°08' W 019°03'0 0.5 1029.3 17.2
2018-Feb-01 05:00N 37°08' W 019°02'1 0.6 1029.0 17.3
2018-Feb-01 04:00N 37°09' W 019°02'0 0.0 1029.1 17.3
2018-Feb-01 03:00N 37°09' W 019°02'0 0.0 1029.0 17.3
2018-Feb-01 02:00N 37°09' W 019°02'0 0.0 1029.0 17.3
2018-Feb-01 01:00N 37°09' W 019°02'0 0.5 1029.5 17.3
2018-Feb-01 00:00N 37°09' W 019°02'0 0.0 1029.9 17.4
2018-Jan-31 23:00N 37°09' W 019°02'0 0.0 1029.6 17.4
2018-Jan-31 22:00N 37°09' W 019°02'0 0.5 1029.9 17.4
2018-Jan-31 21:00N 37°09' W 019°01'0 0.5 1030.0 17.4
2018-Jan-31 20:00N 37°09' W 019°01'0 0.0 1029.2 17.4
2018-Jan-31 19:00N 37°09' W 019°01'1 0.8 1028.7 17.4
2018-Jan-31 18:00N 37°10' W 019°00'0 0.5 1028.8 17.4
2018-Jan-31 17:00N 37°10' W 018°59'0 0.0 1028.6 17.4
2018-Jan-31 16:00N 37°10' W 018°59'0 0.5 1028.2 17.4
2018-Jan-31 15:00N 37°10' W 018°59'0 0.5 1028.4 17.4
2018-Jan-31 14:00N 37°10' W 018°58'1 0.8 1029.4 17.5
2018-Jan-31 13:00N 37°10' W 018°58'0 0.0 1030.4 17.4
2018-Jan-31 12:00N 37°10' W 018°58'1 0.8 1031.2 17.4
2018-Jan-31 11:00N 37°11' W 018°57'0 0.0 1030.6 17.4
2018-Jan-31 10:00N 37°11' W 018°57'1 0.8 1030.0 17.4
2018-Jan-31 09:00N 37°11' W 018°56'0 0.0 1029.4 17.5
2018-Jan-31 08:00N 37°11' W 018°56'0 0.5 1029.1 17.5
2018-Jan-31 07:00N 37°11' W 018°56'1 0.6 1028.8 17.5
2018-Jan-31 06:00N 37°12' W 018°56'0 0.0 1028.3 17.5
2018-Jan-31 05:00N 37°12' W 018°56'1 0.8 1028.6 17.5
2018-Jan-31 04:00N 37°13' W 018°56'0 0.0 1028.4 17.5
2018-Jan-31 03:00N 37°13' W 018°56'0 0.0 1028.3 17.5
2018-Jan-31 02:00N 37°13' W 018°56'0 0.5 1028.6 17.5
2018-Jan-31 01:00N 37°13' W 018°56'0 0.0 1029.3 17.5
2018-Jan-31 00:00N 37°13' W 018°56'0 0.0 1029.8 17.5
2018-Jan-30 23:00N 37°13' W 018°56'0 0.0 1029.7 17.5
2018-Jan-30 22:00N 37°13' W 018°56'0 0.5 1030.1 17.4
2018-Jan-30 21:00N 37°13' W 018°55'0 0.0 1030.0 17.5
2018-Jan-30 20:00N 37°13' W 018°55'1 1.1 1029.5 17.5
2018-Jan-30 19:00N 37°13' W 018°54'0 0.0 1029.1 17.5
2018-Jan-30 18:00N 37°13' W 018°54'1 0.6 1029.1 17.4
2018-Jan-30 17:00N 37°14' W 018°54'1 0.6 1028.6 17.4
2018-Jan-30 16:00N 37°14' W 018°54'1 0.6 1028.3 17.5
2018-Jan-30 15:00N 37°15' W 018°54'0 0.0 1028.6 17.5
2018-Jan-30 14:00N 37°15' W 018°54'0 0.5 1029.3 17.5
2018-Jan-30 13:00N 37°15' W 018°55'1 0.6 1030.0 17.4
2018-Jan-30 12:00N 37°16' W 018°55'0 0.0 1030.7 17.4
2018-Jan-30 11:00N 37°16' W 018°55'0 0.0 1030.5 17.4
2018-Jan-30 10:00N 37°16' W 018°55'0 0.0 1030.2 17.4
2018-Jan-30 09:00N 37°16' W 018°55'1 0.6 1030.0 17.4
2018-Jan-30 08:00N 37°16' W 018°55'0 0.0 1029.9 17.4
2018-Jan-30 07:00N 37°16' W 018°55'1 0.6 1029.7 17.4
2018-Jan-30 06:00N 37°17' W 018°55'0 0.0 1029.3 17.4
2018-Jan-30 05:00N 37°17' W 018°55'1 0.6 1029.6 17.4
2018-Jan-30 04:00N 37°17' W 018°55'0 0.0 1029.9 17.4
2018-Jan-30 03:00N 37°17' W 018°55'0 0.0 1030.1 17.4
2018-Jan-30 02:00N 37°17' W 018°55'0 0.5 1030.6 17.4
2018-Jan-30 01:00N 37°17' W 018°55'1 0.6 1031.1 17.4
2018-Jan-30 00:00N 37°17' W 018°55'0 0.0 1031.5 17.4
2018-Jan-29 23:00N 37°17' W 018°55'0 0.5 1031.6 17.4
2018-Jan-29 22:00N 37°17' W 018°55'1 0.6 1031.6 17.4
2018-Jan-29 21:00N 37°17' W 018°55'0 0.0 1031.6 17.4
2018-Jan-29 20:00N 37°17' W 018°55'1 0.6 1030.9 17.4
2018-Jan-29 19:00N 37°18' W 018°55'1 0.8 1030.6 17.4
2018-Jan-29 18:00N 37°19' W 018°54'0 0.5 1030.2 17.4
2018-Jan-29 17:00N 37°19' W 018°55'1 0.6 1029.9 17.4
2018-Jan-29 16:00N 37°19' W 018°55'0 0.0 1029.9 17.4
2018-Jan-29 15:00N 37°19' W 018°55'1 1.0 1030.2 17.4
2018-Jan-29 14:00N 37°19' W 018°56'0 0.0 1030.9 17.4
2018-Jan-29 13:00N 37°19' W 018°56'0 0.0 1031.5 17.4
2018-Jan-29 12:00N 37°19' W 018°56'0 0.0 1032.0 17.4
2018-Jan-29 11:00N 37°19' W 018°56'0 0.5 1031.7 17.4
2018-Jan-29 10:00N 37°19' W 018°56'0 0.0 1031.5 17.4
2018-Jan-29 09:00N 37°19' W 018°56'0 0.0 1031.1 17.4
2018-Jan-29 08:00N 37°19' W 018°56'0 0.0 1030.7 17.4
2018-Jan-29 07:00N 37°19' W 018°56'0 0.0 1030.2 17.4
2018-Jan-29 06:00N 37°19' W 018°56'0 0.0 1030.2 17.4
2018-Jan-29 05:00N 37°19' W 018°56'1 0.8 1030.4 17.4
2018-Jan-29 04:00N 37°20' W 018°57'0 0.0 1030.9 17.5
2018-Jan-29 03:00N 37°20' W 018°57'0 0.5 1031.2 17.5
2018-Jan-29 02:00N 37°20' W 018°58'0 0.0 1031.4 17.5
2018-Jan-29 01:00N 37°20' W 018°58'0 0.0 1032.5 17.5
2018-Jan-29 00:00N 37°20' W 018°58'1 0.6 1032.5 17.4
2018-Jan-28 23:00N 37°20' W 018°58'0 0.0 1032.8 17.5
2018-Jan-28 22:00N 37°20' W 018°58'0 0.0 1033.0 17.4
2018-Jan-28 21:00N 37°20' W 018°58'1 0.6 1033.0 17.4
2018-Jan-28 20:00N 37°21' W 018°58'0 0.0 1033.3 17.5
2018-Jan-28 19:00N 37°21' W 018°58'1 0.6 1033.1 17.5
2018-Jan-28 18:00N 37°22' W 018°58'0 0.0 1032.8 17.5
2018-Jan-28 17:00N 37°22' W 018°58'0 0.0 1032.8 17.5
2018-Jan-28 16:00N 37°22' W 018°58'0 0.5 1032.8 17.5
2018-Jan-28 15:00N 37°22' W 018°58'0 0.5 1033.2 17.5
2018-Jan-28 14:00N 37°22' W 018°59'0 0.5 1034.4 17.5
2018-Jan-28 13:00N 37°22' W 018°59'0 0.0 1035.2 17.5
2018-Jan-28 12:00N 37°22' W 018°59'1 0.8 1035.7 17.5
2018-Jan-28 11:00N 37°21' W 019°00'0 0.0 1035.7 17.5
2018-Jan-28 10:00N 37°21' W 019°00'0 0.0 1035.8 17.5
2018-Jan-28 09:00N 37°21' W 019°00'0 0.0 1035.7 17.5
2018-Jan-28 08:00N 37°21' W 019°00'0 0.5 1035.3 17.5
2018-Jan-28 07:00N 37°21' W 019°01'0 0.0 1035.0 17.5
2018-Jan-28 06:00N 37°21' W 019°01'0 0.0 1035.3 17.5
2018-Jan-28 05:00N 37°21' W 019°01'1 0.8 1035.9 17.5
2018-Jan-28 04:00N 37°22' W 019°01'1 0.6 1036.1 17.5
2018-Jan-28 03:00N 37°22' W 019°01'0 0.5 1036.7 17.5
2018-Jan-28 02:00N 37°22' W 019°02'1 0.8 1037.3 17.5
2018-Jan-28 01:00N 37°23' W 019°02'0 0.0 1037.9 17.5
2018-Jan-28 00:00N 37°23' W 019°02'0 0.5 1038.2 17.5
2018-Jan-27 23:00N 37°23' W 019°03'1 0.6 1039.0 17.5
2018-Jan-27 22:00N 37°23' W 019°03'0 0.5 1039.2 17.5
2018-Jan-27 21:00N 37°23' W 019°04'0 0.0 1039.3 17.5
2018-Jan-27 20:00N 37°23' W 019°04'1 0.6 1039.1 17.5
2018-Jan-27 19:00N 37°24' W 019°04'0 0.0 1038.9 17.5
2018-Jan-27 18:00N 37°24' W 019°04'0 0.5 1038.5 17.5
2018-Jan-27 17:00N 37°24' W 019°04'0 0.0 1038.6 17.5
2018-Jan-27 16:00N 37°24' W 019°04'0 0.0 1038.6 17.6
2018-Jan-27 15:00N 37°24' W 019°04'0 0.5 1039.1 17.5
2018-Jan-27 14:00N 37°24' W 019°05'1 0.6 1039.9 17.5
2018-Jan-27 13:00N 37°23' W 019°05'0 0.0 1040.8 17.5
2018-Jan-27 12:00N 37°23' W 019°05'0 0.0 1041.2 17.5
2018-Jan-27 11:00N 37°23' W 019°05'0 0.5 1041.2 17.5
2018-Jan-27 10:00N 37°23' W 019°05'0 0.0 1041.0 17.5
2018-Jan-27 09:00N 37°23' W 019°05'0 0.0 1040.9 17.5
2018-Jan-27 08:00N 37°23' W 019°05'0 0.0 1040.3 17.5
2018-Jan-27 07:00N 37°23' W 019°05'1 0.8 1039.8 17.5
2018-Jan-27 06:00N 37°24' W 019°06'0 0.0 1039.7 17.5
2018-Jan-27 05:00N 37°24' W 019°06'1 0.8 1039.8 17.5
2018-Jan-27 04:00N 37°25' W 019°07'0 0.5 1040.0 17.5
2018-Jan-27 03:00N 37°25' W 019°07'1 0.8 1040.5 17.5
2018-Jan-27 02:00N 37°25' W 019°08'0 0.5 1041.0 17.5
2018-Jan-27 01:00N 37°25' W 019°08'1 0.8 1041.6 17.5
2018-Jan-27 00:00N 37°26' W 019°09'0 0.5 1041.6 17.5
2018-Jan-26 23:00N 37°26' W 019°10'0 0.5 1041.5 17.5
2018-Jan-26 22:00N 37°26' W 019°10'0 0.0 1041.6 17.5
2018-Jan-26 21:00N 37°26' W 019°10'0 0.0 1041.4 17.6
2018-Jan-26 20:00N 37°26' W 019°10'0 0.0 1041.1 17.6
2018-Jan-26 19:00N 37°26' W 019°10'1 0.6 1040.5 17.5
2018-Jan-26 18:00N 37°25' W 019°10'0 0.0 1040.4 17.6
2018-Jan-26 17:00N 37°25' W 019°10'0 0.0 1040.2 17.6
2018-Jan-26 16:00N 37°25' W 019°10'0 0.0 1040.2 17.6
2018-Jan-26 15:00N 37°25' W 019°10'0 0.0 1040.0 17.6
2018-Jan-26 14:00N 37°25' W 019°10'0 0.5 1040.5 17.6
2018-Jan-26 13:00N 37°25' W 019°11'1 0.6 1040.8 17.6
2018-Jan-26 12:00N 37°26' W 019°11'0 0.5 1041.1 17.6
2018-Jan-26 11:00N 37°26' W 019°11'0 0.5 1040.8 17.6
2018-Jan-26 10:00N 37°26' W 019°12'0 0.5 1040.0 17.6
2018-Jan-26 09:00N 37°26' W 019°13'0 0.5 1040.0 17.6
2018-Jan-26 08:00N 37°26' W 019°13'1 0.8 1039.1 17.6
2018-Jan-26 07:00N 37°26' W 019°14'0 0.0 1038.9 17.6
2018-Jan-26 06:00N 37°26' W 019°14'0 0.5 1038.2 17.6
2018-Jan-26 05:00N 37°26' W 019°14'1 0.8 1038.3 17.6
2018-Jan-26 04:00N 37°27' W 019°15'0 0.5 1038.5 17.6
2018-Jan-26 03:00N 37°27' W 019°16'1 0.8 1038.6 17.6
2018-Jan-26 02:00N 37°28' W 019°16'0 0.5 1038.4 17.6
2018-Jan-26 01:00N 37°28' W 019°17'0 0.5 1038.8 17.6
2018-Jan-26 00:00N 37°28' W 019°17'0 0.5 1038.7 17.6
2018-Jan-25 23:00N 37°28' W 019°18'0 0.0 1038.5 17.6
2018-Jan-25 22:00N 37°28' W 019°18'0 0.0 1038.0 17.6
2018-Jan-25 21:00N 37°28' W 019°18'1 0.6 1037.6 17.6
2018-Jan-25 20:00N 37°28' W 019°18'0 0.5 1037.1 17.6
2018-Jan-25 19:00N 37°28' W 019°17'   1036.7 17.7
Track history (hours):
 
Tides and Currents Weather Stations Pressure Air Temp Water Temp Dewpoint Dewpoint Depression Visibility Wind Speed Wind Dir Waves Ship Positions

Drifting buoy 62554

Last reported at 2018-Feb-04 19:00 UTC. Time now 2018-Jul-18 08:59 UTC.
Position N 36°43' W 019°20'.
Warning: this ship's position is months out of date.

Barometer 1027.3 mb
Water temperature 16.9 ° C

Date/timePositionNaut miles runAvg speedWind from/ knotsBaromVisibWave heightAir tempDewpointWater temp
2018-Feb-04 19:00N 36°43' W 019°20'1 0.6 1027.3 16.9
2018-Feb-04 18:00N 36°44' W 019°20'1 0.6 1027.3 16.9
2018-Feb-04 17:00N 36°44' W 019°20'1 0.6 1027.4 16.9
2018-Feb-04 16:00N 36°45' W 019°20'1 1.2 1027.9 16.9
2018-Feb-04 15:00N 36°46' W 019°20'1 0.6 1028.5 16.9
2018-Feb-04 14:00N 36°47' W 019°20'0 0.0 1029.6 16.9
2018-Feb-04 13:00N 36°47' W 019°20'1 0.6 1030.9 16.9
2018-Feb-04 12:00N 36°47' W 019°20'1 0.6 1031.7 16.9
2018-Feb-04 11:00N 36°48' W 019°20'0 0.5 1032.1 16.9
2018-Feb-04 10:00N 36°48' W 019°20'1 0.6 1032.4 16.9
2018-Feb-04 09:00N 36°49' W 019°20'0 0.0 1032.0 16.9
2018-Feb-04 08:00N 36°49' W 019°20'0 0.0 1031.5 16.8
2018-Feb-04 07:00N 36°49' W 019°20'1 0.8 1031.4 16.8
2018-Feb-04 06:00N 36°49' W 019°19'0 0.0 1031.6 16.8
2018-Feb-04 05:00N 36°49' W 019°19'0 0.0 1031.8 16.9
2018-Feb-04 04:00N 36°49' W 019°19'0 0.0 1032.3 16.9
2018-Feb-04 03:00N 36°49' W 019°19'1 0.8 1032.8 16.9
2018-Feb-04 02:00N 36°50' W 019°19'0 0.5 1033.1 16.9
2018-Feb-04 01:00N 36°50' W 019°18'0 0.0 1033.4 16.9
2018-Feb-04 00:00N 36°50' W 019°18'1 0.8 1033.4 16.9
2018-Feb-03 23:00N 36°50' W 019°17'1 0.8 1033.6 16.9
2018-Feb-03 22:00N 36°51' W 019°17'0 0.5 1033.4 16.9
2018-Feb-03 21:00N 36°51' W 019°16'1 0.6 1033.1 16.9
2018-Feb-03 20:00N 36°52' W 019°16'1 0.8 1033.1 17.0
2018-Feb-03 19:00N 36°52' W 019°16'1 1.2 1032.3 17.0
2018-Feb-03 18:00N 36°53' W 019°16'1 0.6 1031.9 17.0
2018-Feb-03 17:00N 36°54' W 019°16'1 0.6 1031.2 17.0
2018-Feb-03 16:00N 36°55' W 019°16'1 0.6 1030.7 16.9
2018-Feb-03 15:00N 36°55' W 019°16'1 0.6 1030.8 16.9
2018-Feb-03 14:00N 36°56' W 019°16'1 0.6 1031.3 16.9
2018-Feb-03 13:00N 36°56' W 019°16'0 0.0 1031.6 16.9
2018-Feb-03 12:00N 36°56' W 019°16'0 0.5 1032.4 16.9
2018-Feb-03 11:00N 36°56' W 019°16'1 0.8 1032.6 16.8
2018-Feb-03 10:00N 36°57' W 019°16'0 0.0 1032.4 16.9
2018-Feb-03 09:00N 36°57' W 019°16'0 0.0 1031.8 16.8
2018-Feb-03 08:00N 36°57' W 019°16'0 0.5 1031.1 16.8
2018-Feb-03 07:00N 36°57' W 019°15'1 0.6 1030.8 16.8
2018-Feb-03 06:00N 36°58' W 019°15'0 0.0 1030.4 16.9
2018-Feb-03 05:00N 36°58' W 019°15'1 0.8 1030.3 16.9
2018-Feb-03 04:00N 36°58' W 019°14'0 0.0 1030.3 16.9
2018-Feb-03 03:00N 36°58' W 019°14'1 0.8 1030.6 16.9
2018-Feb-03 02:00N 36°59' W 019°14'0 0.0 1030.9 16.9
2018-Feb-03 01:00N 36°59' W 019°14'0 0.5 1031.3 16.9
2018-Feb-03 00:00N 36°59' W 019°13'0 0.5 1031.3 17.0
2018-Feb-02 23:00N 36°59' W 019°13'0 0.0 1031.4 17.0
2018-Feb-02 22:00N 36°59' W 019°13'0 0.5 1031.2 17.0
2018-Feb-02 21:00N 36°59' W 019°12'1 0.8 1031.1 17.0
2018-Feb-02 20:00N 36°59' W 019°11'0 0.5 1030.7 17.1
2018-Feb-02 19:00N 36°59' W 019°11'1 0.6 1030.3 17.1
2018-Feb-02 18:00N 37°00' W 019°11'0 0.0 1029.9 17.1
2018-Feb-02 17:00N 37°00' W 019°11'1 0.6 1029.4 17.1
2018-Feb-02 16:00N 37°01' W 019°11'1 0.6 1029.2 17.2
2018-Feb-02 15:00N 37°01' W 019°11'0 0.0 1029.2 17.2
2018-Feb-02 14:00N 37°01' W 019°11'0 0.0 1029.7 17.1
2018-Feb-02 13:00N 37°01' W 019°11'0 0.0 1030.1 17.1
2018-Feb-02 12:00N 37°01' W 019°11'1 0.8 1030.7 17.1
2018-Feb-02 11:00N 37°02' W 019°10'0 0.0 1030.7 17.1
2018-Feb-02 10:00N 37°02' W 019°10'0 0.5 1030.4 17.1
2018-Feb-02 09:00N 37°02' W 019°10'0 0.0 1029.9 17.1
2018-Feb-02 08:00N 37°02' W 019°10'1 0.8 1029.1 17.1
2018-Feb-02 07:00N 37°02' W 019°09'0 0.5 1028.8 17.1
2018-Feb-02 06:00N 37°02' W 019°08'1 0.6 1028.6 17.1
2018-Feb-02 05:00N 37°03' W 019°08'0 0.0 1028.6 17.1
2018-Feb-02 04:00N 37°03' W 019°08'1 0.6 1028.7 17.1
2018-Feb-02 03:00N 37°04' W 019°08'0 0.0 1029.1 17.1
2018-Feb-02 02:00N 37°04' W 019°08'1 0.8 1029.5 17.1
2018-Feb-02 01:00N 37°04' W 019°08'0 0.5 1030.0 17.1
2018-Feb-02 00:00N 37°04' W 019°08'1 1.3 1030.5 17.1
2018-Feb-01 23:00N 37°05' W 019°08'0 0.0 1030.6 17.1
2018-Feb-01 22:00N 37°05' W 019°08'0 0.0 1030.6 17.1
2018-Feb-01 21:00N 37°05' W 019°08'1 0.6 1030.5 17.1
2018-Feb-01 20:00N 37°06' W 019°08'0 0.0 1030.4 17.1
2018-Feb-01 19:00N 37°06' W 019°08'0 0.0 1029.5 17.1
2018-Feb-01 18:00N 37°06' W 019°08'0 0.0 1029.0 17.2
2018-Feb-01 17:00N 37°06' W 019°08'1 0.6 1028.6 17.2
2018-Feb-01 16:00N 37°07' W 019°08'0 0.0 1028.6 17.2
2018-Feb-01 15:00N 37°07' W 019°08'0 0.0 1028.8 17.2
2018-Feb-01 14:00N 37°07' W 019°08'0 0.0 1029.6 17.1
2018-Feb-01 13:00N 37°07' W 019°08'0 0.5 1030.7 17.2
2018-Feb-01 12:00N 37°07' W 019°07'0 0.5 1031.2 17.2
2018-Feb-01 11:00N 37°07' W 019°07'1 1.1 1031.0 17.2
2018-Feb-01 10:00N 37°07' W 019°05'1 1.1 1030.8 17.2
2018-Feb-01 09:00N 37°08' W 019°04'0 0.0 1030.4 17.2
2018-Feb-01 08:00N 37°08' W 019°04'0 0.5 1029.9 17.2
2018-Feb-01 07:00N 37°08' W 019°04'1 0.8 1029.6 17.2
2018-Feb-01 06:00N 37°08' W 019°03'0 0.5 1029.3 17.2
2018-Feb-01 05:00N 37°08' W 019°02'1 0.6 1029.0 17.3
2018-Feb-01 04:00N 37°09' W 019°02'0 0.0 1029.1 17.3
2018-Feb-01 03:00N 37°09' W 019°02'0 0.0 1029.0 17.3
2018-Feb-01 02:00N 37°09' W 019°02'0 0.0 1029.0 17.3
2018-Feb-01 01:00N 37°09' W 019°02'0 0.5 1029.5 17.3
2018-Feb-01 00:00N 37°09' W 019°02'0 0.0 1029.9 17.4
2018-Jan-31 23:00N 37°09' W 019°02'0 0.0 1029.6 17.4
2018-Jan-31 22:00N 37°09' W 019°02'0 0.5 1029.9 17.4
2018-Jan-31 21:00N 37°09' W 019°01'0 0.5 1030.0 17.4
2018-Jan-31 20:00N 37°09' W 019°01'0 0.0 1029.2 17.4
2018-Jan-31 19:00N 37°09' W 019°01'1 0.8 1028.7 17.4
2018-Jan-31 18:00N 37°10' W 019°00'0 0.5 1028.8 17.4
2018-Jan-31 17:00N 37°10' W 018°59'0 0.0 1028.6 17.4
2018-Jan-31 16:00N 37°10' W 018°59'0 0.5 1028.2 17.4
2018-Jan-31 15:00N 37°10' W 018°59'0 0.5 1028.4 17.4
2018-Jan-31 14:00N 37°10' W 018°58'1 0.8 1029.4 17.5
2018-Jan-31 13:00N 37°10' W 018°58'0 0.0 1030.4 17.4
2018-Jan-31 12:00N 37°10' W 018°58'1 0.8 1031.2 17.4
2018-Jan-31 11:00N 37°11' W 018°57'0 0.0 1030.6 17.4
2018-Jan-31 10:00N 37°11' W 018°57'1 0.8 1030.0 17.4
2018-Jan-31 09:00N 37°11' W 018°56'0 0.0 1029.4 17.5
2018-Jan-31 08:00N 37°11' W 018°56'0 0.5 1029.1 17.5
2018-Jan-31 07:00N 37°11' W 018°56'1 0.6 1028.8 17.5
2018-Jan-31 06:00N 37°12' W 018°56'0 0.0 1028.3 17.5
2018-Jan-31 05:00N 37°12' W 018°56'1 0.8 1028.6 17.5
2018-Jan-31 04:00N 37°13' W 018°56'0 0.0 1028.4 17.5
2018-Jan-31 03:00N 37°13' W 018°56'0 0.0 1028.3 17.5
2018-Jan-31 02:00N 37°13' W 018°56'0 0.5 1028.6 17.5
2018-Jan-31 01:00N 37°13' W 018°56'0 0.0 1029.3 17.5
2018-Jan-31 00:00N 37°13' W 018°56'0 0.0 1029.8 17.5
2018-Jan-30 23:00N 37°13' W 018°56'0 0.0 1029.7 17.5
2018-Jan-30 22:00N 37°13' W 018°56'0 0.5 1030.1 17.4
2018-Jan-30 21:00N 37°13' W 018°55'0 0.0 1030.0 17.5
2018-Jan-30 20:00N 37°13' W 018°55'1 1.1 1029.5 17.5
2018-Jan-30 19:00N 37°13' W 018°54'0 0.0 1029.1 17.5
2018-Jan-30 18:00N 37°13' W 018°54'1 0.6 1029.1 17.4
2018-Jan-30 17:00N 37°14' W 018°54'1 0.6 1028.6 17.4
2018-Jan-30 16:00N 37°14' W 018°54'1 0.6 1028.3 17.5
2018-Jan-30 15:00N 37°15' W 018°54'0 0.0 1028.6 17.5
2018-Jan-30 14:00N 37°15' W 018°54'0 0.5 1029.3 17.5
2018-Jan-30 13:00N 37°15' W 018°55'1 0.6 1030.0 17.4
2018-Jan-30 12:00N 37°16' W 018°55'0 0.0 1030.7 17.4
2018-Jan-30 11:00N 37°16' W 018°55'0 0.0 1030.5 17.4
2018-Jan-30 10:00N 37°16' W 018°55'0 0.0 1030.2 17.4
2018-Jan-30 09:00N 37°16' W 018°55'1 0.6 1030.0 17.4
2018-Jan-30 08:00N 37°16' W 018°55'0 0.0 1029.9 17.4
2018-Jan-30 07:00N 37°16' W 018°55'1 0.6 1029.7 17.4
2018-Jan-30 06:00N 37°17' W 018°55'0 0.0 1029.3 17.4
2018-Jan-30 05:00N 37°17' W 018°55'1 0.6 1029.6 17.4
2018-Jan-30 04:00N 37°17' W 018°55'0 0.0 1029.9 17.4
2018-Jan-30 03:00N 37°17' W 018°55'0 0.0 1030.1 17.4
2018-Jan-30 02:00N 37°17' W 018°55'0 0.5 1030.6 17.4
2018-Jan-30 01:00N 37°17' W 018°55'1 0.6 1031.1 17.4
2018-Jan-30 00:00N 37°17' W 018°55'0 0.0 1031.5 17.4
2018-Jan-29 23:00N 37°17' W 018°55'0 0.5 1031.6 17.4
2018-Jan-29 22:00N 37°17' W 018°55'1 0.6 1031.6 17.4
2018-Jan-29 21:00N 37°17' W 018°55'0 0.0 1031.6 17.4
2018-Jan-29 20:00N 37°17' W 018°55'1 0.6 1030.9 17.4
2018-Jan-29 19:00N 37°18' W 018°55'1 0.8 1030.6 17.4
2018-Jan-29 18:00N 37°19' W 018°54'0 0.5 1030.2 17.4
2018-Jan-29 17:00N 37°19' W 018°55'1 0.6 1029.9 17.4
2018-Jan-29 16:00N 37°19' W 018°55'0 0.0 1029.9 17.4
2018-Jan-29 15:00N 37°19' W 018°55'1 1.0 1030.2 17.4
2018-Jan-29 14:00N 37°19' W 018°56'0 0.0 1030.9 17.4
2018-Jan-29 13:00N 37°19' W 018°56'0 0.0 1031.5 17.4
2018-Jan-29 12:00N 37°19' W 018°56'0 0.0 1032.0 17.4
2018-Jan-29 11:00N 37°19' W 018°56'0 0.5 1031.7 17.4
2018-Jan-29 10:00N 37°19' W 018°56'0 0.0 1031.5 17.4
2018-Jan-29 09:00N 37°19' W 018°56'0 0.0 1031.1 17.4
2018-Jan-29 08:00N 37°19' W 018°56'0 0.0 1030.7 17.4
2018-Jan-29 07:00N 37°19' W 018°56'0 0.0 1030.2 17.4
2018-Jan-29 06:00N 37°19' W 018°56'0 0.0 1030.2 17.4
2018-Jan-29 05:00N 37°19' W 018°56'1 0.8 1030.4 17.4
2018-Jan-29 04:00N 37°20' W 018°57'0 0.0 1030.9 17.5
2018-Jan-29 03:00N 37°20' W 018°57'0 0.5 1031.2 17.5
2018-Jan-29 02:00N 37°20' W 018°58'0 0.0 1031.4 17.5
2018-Jan-29 01:00N 37°20' W 018°58'0 0.0 1032.5 17.5
2018-Jan-29 00:00N 37°20' W 018°58'1 0.6 1032.5 17.4
2018-Jan-28 23:00N 37°20' W 018°58'0 0.0 1032.8 17.5
2018-Jan-28 22:00N 37°20' W 018°58'0 0.0 1033.0 17.4
2018-Jan-28 21:00N 37°20' W 018°58'1 0.6 1033.0 17.4
2018-Jan-28 20:00N 37°21' W 018°58'0 0.0 1033.3 17.5
2018-Jan-28 19:00N 37°21' W 018°58'1 0.6 1033.1 17.5
2018-Jan-28 18:00N 37°22' W 018°58'0 0.0 1032.8 17.5
2018-Jan-28 17:00N 37°22' W 018°58'0 0.0 1032.8 17.5
2018-Jan-28 16:00N 37°22' W 018°58'0 0.5 1032.8 17.5
2018-Jan-28 15:00N 37°22' W 018°58'0 0.5 1033.2 17.5
2018-Jan-28 14:00N 37°22' W 018°59'0 0.5 1034.4 17.5
2018-Jan-28 13:00N 37°22' W 018°59'0 0.0 1035.2 17.5
2018-Jan-28 12:00N 37°22' W 018°59'1 0.8 1035.7 17.5
2018-Jan-28 11:00N 37°21' W 019°00'0 0.0 1035.7 17.5
2018-Jan-28 10:00N 37°21' W 019°00'0 0.0 1035.8 17.5
2018-Jan-28 09:00N 37°21' W 019°00'0 0.0 1035.7 17.5
2018-Jan-28 08:00N 37°21' W 019°00'0 0.5 1035.3 17.5
2018-Jan-28 07:00N 37°21' W 019°01'0 0.0 1035.0 17.5
2018-Jan-28 06:00N 37°21' W 019°01'0 0.0 1035.3 17.5
2018-Jan-28 05:00N 37°21' W 019°01'1 0.8 1035.9 17.5
2018-Jan-28 04:00N 37°22' W 019°01'1 0.6 1036.1 17.5
2018-Jan-28 03:00N 37°22' W 019°01'0 0.5 1036.7 17.5
2018-Jan-28 02:00N 37°22' W 019°02'1 0.8 1037.3 17.5
2018-Jan-28 01:00N 37°23' W 019°02'0 0.0 1037.9 17.5
2018-Jan-28 00:00N 37°23' W 019°02'0 0.5 1038.2 17.5
2018-Jan-27 23:00N 37°23' W 019°03'1 0.6 1039.0 17.5
2018-Jan-27 22:00N 37°23' W 019°03'0 0.5 1039.2 17.5
2018-Jan-27 21:00N 37°23' W 019°04'0 0.0 1039.3 17.5
2018-Jan-27 20:00N 37°23' W 019°04'1 0.6 1039.1 17.5
2018-Jan-27 19:00N 37°24' W 019°04'0 0.0 1038.9 17.5
2018-Jan-27 18:00N 37°24' W 019°04'0 0.5 1038.5 17.5
2018-Jan-27 17:00N 37°24' W 019°04'0 0.0 1038.6 17.5
2018-Jan-27 16:00N 37°24' W 019°04'0 0.0 1038.6 17.6
2018-Jan-27 15:00N 37°24' W 019°04'0 0.5 1039.1 17.5
2018-Jan-27 14:00N 37°24' W 019°05'1 0.6 1039.9 17.5
2018-Jan-27 13:00N 37°23' W 019°05'0 0.0 1040.8 17.5
2018-Jan-27 12:00N 37°23' W 019°05'0 0.0 1041.2 17.5
2018-Jan-27 11:00N 37°23' W 019°05'0 0.5 1041.2 17.5
2018-Jan-27 10:00N 37°23' W 019°05'0 0.0 1041.0 17.5
2018-Jan-27 09:00N 37°23' W 019°05'0 0.0 1040.9 17.5
2018-Jan-27 08:00N 37°23' W 019°05'0 0.0 1040.3 17.5
2018-Jan-27 07:00N 37°23' W 019°05'1 0.8 1039.8 17.5
2018-Jan-27 06:00N 37°24' W 019°06'0 0.0 1039.7 17.5
2018-Jan-27 05:00N 37°24' W 019°06'1 0.8 1039.8 17.5
2018-Jan-27 04:00N 37°25' W 019°07'0 0.5 1040.0 17.5
2018-Jan-27 03:00N 37°25' W 019°07'1 0.8 1040.5 17.5
2018-Jan-27 02:00N 37°25' W 019°08'0 0.5 1041.0 17.5
2018-Jan-27 01:00N 37°25' W 019°08'1 0.8 1041.6 17.5
2018-Jan-27 00:00N 37°26' W 019°09'0 0.5 1041.6 17.5
2018-Jan-26 23:00N 37°26' W 019°10'0 0.5 1041.5 17.5
2018-Jan-26 22:00N 37°26' W 019°10'0 0.0 1041.6 17.5
2018-Jan-26 21:00N 37°26' W 019°10'0 0.0 1041.4 17.6
2018-Jan-26 20:00N 37°26' W 019°10'0 0.0 1041.1 17.6
2018-Jan-26 19:00N 37°26' W 019°10'1 0.6 1040.5 17.5
2018-Jan-26 18:00N 37°25' W 019°10'0 0.0 1040.4 17.6
2018-Jan-26 17:00N 37°25' W 019°10'0 0.0 1040.2 17.6
2018-Jan-26 16:00N 37°25' W 019°10'0 0.0 1040.2 17.6
2018-Jan-26 15:00N 37°25' W 019°10'0 0.0 1040.0 17.6
2018-Jan-26 14:00N 37°25' W 019°10'0 0.5 1040.5 17.6
2018-Jan-26 13:00N 37°25' W 019°11'1 0.6 1040.8 17.6
2018-Jan-26 12:00N 37°26' W 019°11'0 0.5 1041.1 17.6
2018-Jan-26 11:00N 37°26' W 019°11'0 0.5 1040.8 17.6
2018-Jan-26 10:00N 37°26' W 019°12'0 0.5 1040.0 17.6
2018-Jan-26 09:00N 37°26' W 019°13'0 0.5 1040.0 17.6
2018-Jan-26 08:00N 37°26' W 019°13'1 0.8 1039.1 17.6
2018-Jan-26 07:00N 37°26' W 019°14'0 0.0 1038.9 17.6
2018-Jan-26 06:00N 37°26' W 019°14'0 0.5 1038.2 17.6
2018-Jan-26 05:00N 37°26' W 019°14'1 0.8 1038.3 17.6
2018-Jan-26 04:00N 37°27' W 019°15'0 0.5 1038.5 17.6
2018-Jan-26 03:00N 37°27' W 019°16'1 0.8 1038.6 17.6
2018-Jan-26 02:00N 37°28' W 019°16'0 0.5 1038.4 17.6
2018-Jan-26 01:00N 37°28' W 019°17'0 0.5 1038.8 17.6
2018-Jan-26 00:00N 37°28' W 019°17'0 0.5 1038.7 17.6
2018-Jan-25 23:00N 37°28' W 019°18'0 0.0 1038.5 17.6
2018-Jan-25 22:00N 37°28' W 019°18'0 0.0 1038.0 17.6
2018-Jan-25 21:00N 37°28' W 019°18'1 0.6 1037.6 17.6
2018-Jan-25 20:00N 37°28' W 019°18'0 0.5 1037.1 17.6
2018-Jan-25 19:00N 37°28' W 019°17'   1036.7 17.7

Dump ship's entire track history